sensor_id;sensor_type;location;lat;lon;timestamp;pressure;altitude;pressure_sealevel;temperature;humidity
74975;BME280;68459;50.836;19.138;2023-04-15T00:01:11;97339.25;;;11.28;66.17
74975;BME280;68459;50.836;19.138;2023-04-15T00:04:19;97334.13;;;11.27;66.85
74975;BME280;68459;50.836;19.138;2023-04-15T00:07:23;97330.91;;;11.30;66.59
74975;BME280;68459;50.836;19.138;2023-04-15T00:10:27;97336.84;;;11.32;67.10
74975;BME280;68459;50.836;19.138;2023-04-15T00:13:31;97336.31;;;11.30;66.80
74975;BME280;68459;50.836;19.138;2023-04-15T00:16:37;97331.16;;;11.28;66.98
74975;BME280;68459;50.836;19.138;2023-04-15T00:19:41;97333.88;;;11.28;67.35
74975;BME280;68459;50.836;19.138;2023-04-15T00:22:45;97341.41;;;11.26;66.77
74975;BME280;68459;50.836;19.138;2023-04-15T00:25:50;97326.53;;;11.24;66.99
74975;BME280;68459;50.836;19.138;2023-04-15T00:28:53;97331.94;;;11.24;67.38
74975;BME280;68459;50.836;19.138;2023-04-15T00:31:58;97332.75;;;11.24;67.30
74975;BME280;68459;50.836;19.138;2023-04-15T00:35:02;97327.63;;;11.23;67.05
74975;BME280;68459;50.836;19.138;2023-04-15T00:38:07;97333.25;;;11.21;66.78
74975;BME280;68459;50.836;19.138;2023-04-15T00:41:11;97340.00;;;11.19;67.80
74975;BME280;68459;50.836;19.138;2023-04-15T00:44:15;97336.75;;;11.17;67.97
74975;BME280;68459;50.836;19.138;2023-04-15T00:47:21;97341.09;;;11.18;67.25
74975;BME280;68459;50.836;19.138;2023-04-15T00:50:26;97340.53;;;11.16;67.96
74975;BME280;68459;50.836;19.138;2023-04-15T00:53:29;97337.78;;;11.11;67.81
74975;BME280;68459;50.836;19.138;2023-04-15T00:56:34;97332.09;;;11.07;67.71
74975;BME280;68459;50.836;19.138;2023-04-15T00:59:39;97342.59;;;11.03;67.94
74975;BME280;68459;50.836;19.138;2023-04-15T01:02:44;97348.22;;;10.97;67.65
74975;BME280;68459;50.836;19.138;2023-04-15T01:05:49;97350.88;;;10.92;67.77
74975;BME280;68459;50.836;19.138;2023-04-15T01:08:54;97341.94;;;10.86;68.07
74975;BME280;68459;50.836;19.138;2023-04-15T01:12:00;97359.44;;;10.84;68.13
74975;BME280;68459;50.836;19.138;2023-04-15T01:15:05;97350.22;;;10.80;68.25
74975;BME280;68459;50.836;19.138;2023-04-15T01:18:11;97351.03;;;10.80;68.17
74975;BME280;68459;50.836;19.138;2023-04-15T01:21:15;97362.88;;;10.79;67.92
74975;BME280;68459;50.836;19.138;2023-04-15T01:24:20;97353.72;;;10.80;68.19
74975;BME280;68459;50.836;19.138;2023-04-15T01:27:27;97358.88;;;10.82;68.40
74975;BME280;68459;50.836;19.138;2023-04-15T01:30:33;97359.69;;;10.82;68.74
74975;BME280;68459;50.836;19.138;2023-04-15T01:33:37;97358.63;;;10.83;68.57
74975;BME280;68459;50.836;19.138;2023-04-15T01:36:43;97354.03;;;10.84;68.66
74975;BME280;68459;50.836;19.138;2023-04-15T01:39:48;97359.44;;;10.84;68.45
74975;BME280;68459;50.836;19.138;2023-04-15T01:42:53;97354.28;;;10.82;68.69
74975;BME280;68459;50.836;19.138;2023-04-15T01:45:57;97348.63;;;10.84;68.68
74975;BME280;68459;50.836;19.138;2023-04-15T01:49:01;97350.56;;;10.88;68.81
74975;BME280;68459;50.836;19.138;2023-04-15T01:52:06;97350.31;;;10.90;69.21
74975;BME280;68459;50.836;19.138;2023-04-15T01:55:11;97356.53;;;10.90;68.92
74975;BME280;68459;50.836;19.138;2023-04-15T01:58:16;97360.56;;;10.93;68.92
74975;BME280;68459;50.836;19.138;2023-04-15T02:01:20;97371.13;;;10.94;68.39
74975;BME280;68459;50.836;19.138;2023-04-15T02:04:24;97374.63;;;10.95;69.25
74975;BME280;68459;50.836;19.138;2023-04-15T02:07:29;97367.09;;;10.97;69.31
74975;BME280;68459;50.836;19.138;2023-04-15T02:10:33;97377.88;;;10.97;68.79
74975;BME280;68459;50.836;19.138;2023-04-15T02:13:38;97384.59;;;10.94;68.73
74975;BME280;68459;50.836;19.138;2023-04-15T02:16:42;97393.22;;;10.91;68.73
74975;BME280;68459;50.836;19.138;2023-04-15T02:19:49;97380.00;;;10.90;69.12
74975;BME280;68459;50.836;19.138;2023-04-15T02:22:53;97377.88;;;10.92;68.68
74975;BME280;68459;50.836;19.138;2023-04-15T02:25:57;97377.56;;;10.93;69.15
74975;BME280;68459;50.836;19.138;2023-04-15T02:29:03;97403.22;;;10.96;70.01
74975;BME280;68459;50.836;19.138;2023-04-15T02:32:07;97397.88;;;11.01;68.46
74975;BME280;68459;50.836;19.138;2023-04-15T02:35:12;97397.06;;;11.00;69.10
74975;BME280;68459;50.836;19.138;2023-04-15T02:38:16;97401.91;;;10.98;69.37
74975;BME280;68459;50.836;19.138;2023-04-15T02:41:19;97407.56;;;10.97;68.99
74975;BME280;68459;50.836;19.138;2023-04-15T02:44:29;97405.41;;;10.99;69.54
74975;BME280;68459;50.836;19.138;2023-04-15T02:47:37;97400.59;;;11.01;69.41
74975;BME280;68459;50.836;19.138;2023-04-15T02:50:42;97399.53;;;11.02;69.26
74975;BME280;68459;50.836;19.138;2023-04-15T02:53:48;97404.09;;;11.01;68.96
74975;BME280;68459;50.836;19.138;2023-04-15T02:56:52;97411.06;;;10.97;69.46
74975;BME280;68459;50.836;19.138;2023-04-15T02:59:59;97409.19;;;10.98;69.28
74975;BME280;68459;50.836;19.138;2023-04-15T03:03:04;97413.22;;;10.95;69.54
74975;BME280;68459;50.836;19.138;2023-04-15T03:06:08;97412.66;;;10.93;68.73
74975;BME280;68459;50.836;19.138;2023-04-15T03:09:12;97416.41;;;10.92;69.19
74975;BME280;68459;50.836;19.138;2023-04-15T03:12:17;97418.56;;;10.90;69.73
74975;BME280;68459;50.836;19.138;2023-04-15T03:15:22;97412.88;;;10.87;69.66
74975;BME280;68459;50.836;19.138;2023-04-15T03:18:27;97422.53;;;10.83;68.83
74975;BME280;68459;50.836;19.138;2023-04-15T03:21:35;97417.63;;;10.75;70.13
74975;BME280;68459;50.836;19.138;2023-04-15T03:24:38;97423.19;;;10.68;70.35
74975;BME280;68459;50.836;19.138;2023-04-15T03:27:42;97421.56;;;10.67;70.03
74975;BME280;68459;50.836;19.138;2023-04-15T03:30:49;97423.41;;;10.61;70.43
74975;BME280;68459;50.836;19.138;2023-04-15T03:33:52;97428.25;;;10.59;70.72
74975;BME280;68459;50.836;19.138;2023-04-15T03:36:57;97429.81;;;10.55;69.65
74975;BME280;68459;50.836;19.138;2023-04-15T03:40:01;97432.22;;;10.52;70.44
74975;BME280;68459;50.836;19.138;2023-04-15T03:43:05;97430.28;;;10.47;70.35
74975;BME280;68459;50.836;19.138;2023-04-15T03:46:10;97425.38;;;10.44;70.77
74975;BME280;68459;50.836;19.138;2023-04-15T03:49:14;97432.91;;;10.42;70.59
74975;BME280;68459;50.836;19.138;2023-04-15T03:52:18;97441.22;;;10.41;70.61
74975;BME280;68459;50.836;19.138;2023-04-15T03:55:22;97443.38;;;10.39;70.17
74975;BME280;68459;50.836;19.138;2023-04-15T03:58:26;97443.88;;;10.35;70.86
74975;BME280;68459;50.836;19.138;2023-04-15T04:01:31;97446.59;;;10.35;70.51
74975;BME280;68459;50.836;19.138;2023-04-15T04:04:35;97453.84;;;10.35;70.98
74975;BME280;68459;50.836;19.138;2023-04-15T04:07:38;97455.97;;;10.33;71.00
74975;BME280;68459;50.836;19.138;2023-04-15T04:10:42;97452.78;;;10.36;71.10
74975;BME280;68459;50.836;19.138;2023-04-15T04:13:46;97451.72;;;10.37;71.25
74975;BME280;68459;50.836;19.138;2023-04-15T04:16:51;97453.09;;;10.40;70.83
74975;BME280;68459;50.836;19.138;2023-04-15T04:19:55;97457.41;;;10.41;70.65
74975;BME280;68459;50.836;19.138;2023-04-15T04:22:58;97466.06;;;10.43;70.82
74975;BME280;68459;50.836;19.138;2023-04-15T04:26:02;97463.59;;;10.41;70.39
74975;BME280;68459;50.836;19.138;2023-04-15T04:29:08;97461.47;;;10.43;70.66
74975;BME280;68459;50.836;19.138;2023-04-15T04:32:13;97469.06;;;10.46;70.87
74975;BME280;68459;50.836;19.138;2023-04-15T04:35:17;97460.16;;;10.46;70.91
74975;BME280;68459;50.836;19.138;2023-04-15T04:38:21;97465.88;;;10.49;71.49
74975;BME280;68459;50.836;19.138;2023-04-15T04:41:25;97468.13;;;10.57;70.78
74975;BME280;68459;50.836;19.138;2023-04-15T04:44:29;97472.50;;;10.63;70.55
74975;BME280;68459;50.836;19.138;2023-04-15T04:47:34;97466.59;;;10.66;70.58
74975;BME280;68459;50.836;19.138;2023-04-15T04:50:38;97479.25;;;10.66;70.54
74975;BME280;68459;50.836;19.138;2023-04-15T04:53:42;97477.38;;;10.66;70.30
74975;BME280;68459;50.836;19.138;2023-04-15T04:56:46;97484.41;;;10.67;70.34
74975;BME280;68459;50.836;19.138;2023-04-15T04:59:50;97485.47;;;10.66;70.06
74975;BME280;68459;50.836;19.138;2023-04-15T05:02:55;97496.25;;;10.66;70.93
74975;BME280;68459;50.836;19.138;2023-04-15T05:05:59;97497.38;;;10.70;71.05
74975;BME280;68459;50.836;19.138;2023-04-15T05:09:04;97512.56;;;10.77;70.30
74975;BME280;68459;50.836;19.138;2023-04-15T05:12:08;97509.63;;;10.78;70.30
74975;BME280;68459;50.836;19.138;2023-04-15T05:15:16;97517.50;;;10.85;70.63
74975;BME280;68459;50.836;19.138;2023-04-15T05:18:21;97524.59;;;10.91;70.29
74975;BME280;68459;50.836;19.138;2023-04-15T05:21:24;97519.25;;;10.96;70.33
74975;BME280;68459;50.836;19.138;2023-04-15T05:24:29;97523.25;;;10.93;69.47
74975;BME280;68459;50.836;19.138;2023-04-15T05:27:33;97527.28;;;10.91;69.45
74975;BME280;68459;50.836;19.138;2023-04-15T05:30:37;97509.47;;;10.90;69.72
74975;BME280;68459;50.836;19.138;2023-04-15T05:33:43;97518.81;;;10.82;69.67
74975;BME280;68459;50.836;19.138;2023-04-15T05:36:46;97517.41;;;10.75;68.72
74975;BME280;68459;50.836;19.138;2023-04-15T05:39:50;97534.06;;;10.71;69.26
74975;BME280;68459;50.836;19.138;2023-04-15T05:42:54;97527.88;;;10.71;69.23
74975;BME280;68459;50.836;19.138;2023-04-15T05:45:57;97528.50;;;10.78;68.82
74975;BME280;68459;50.836;19.138;2023-04-15T05:49:03;97529.59;;;10.82;68.28
74975;BME280;68459;50.836;19.138;2023-04-15T05:52:07;97539.00;;;10.80;68.68
74975;BME280;68459;50.836;19.138;2023-04-15T05:55:10;97543.81;;;10.73;68.96
74975;BME280;68459;50.836;19.138;2023-04-15T05:58:15;97542.09;;;10.66;68.48
74975;BME280;68459;50.836;19.138;2023-04-15T06:01:19;97550.25;;;10.71;68.90
74975;BME280;68459;50.836;19.138;2023-04-15T06:04:25;97558.97;;;10.79;68.86
74975;BME280;68459;50.836;19.138;2023-04-15T06:07:28;97571.44;;;10.85;68.66
74975;BME280;68459;50.836;19.138;2023-04-15T06:10:34;97561.72;;;10.84;68.74
74975;BME280;68459;50.836;19.138;2023-04-15T06:13:38;97571.13;;;10.81;68.14
74975;BME280;68459;50.836;19.138;2023-04-15T06:16:42;97561.38;;;10.75;68.87
74975;BME280;68459;50.836;19.138;2023-04-15T06:19:47;97564.31;;;10.74;68.08
74975;BME280;68459;50.836;19.138;2023-04-15T06:22:52;97564.31;;;10.74;68.00
74975;BME280;68459;50.836;19.138;2023-04-15T06:25:56;97554.03;;;10.70;67.67
74975;BME280;68459;50.836;19.138;2023-04-15T06:29:00;97555.16;;;10.75;67.45
74975;BME280;68459;50.836;19.138;2023-04-15T06:32:04;97565.00;;;10.86;67.34
74975;BME280;68459;50.836;19.138;2023-04-15T06:35:10;97565.06;;;10.91;67.01
74975;BME280;68459;50.836;19.138;2023-04-15T06:38:13;97572.09;;;10.92;67.09
74975;BME280;68459;50.836;19.138;2023-04-15T06:41:17;97577.78;;;10.95;67.29
74975;BME280;68459;50.836;19.138;2023-04-15T06:44:21;97570.66;;;11.11;66.55
74975;BME280;68459;50.836;19.138;2023-04-15T06:47:25;97570.91;;;11.31;66.13
74975;BME280;68459;50.836;19.138;2023-04-15T06:50:30;97584.00;;;11.50;65.94
74975;BME280;68459;50.836;19.138;2023-04-15T06:53:34;97586.28;;;11.58;65.19
74975;BME280;68459;50.836;19.138;2023-04-15T06:56:41;97594.47;;;11.73;65.29
74975;BME280;68459;50.836;19.138;2023-04-15T06:59:45;97595.50;;;11.94;64.92
74975;BME280;68459;50.836;19.138;2023-04-15T07:02:49;97599.91;;;12.05;64.12
74975;BME280;68459;50.836;19.138;2023-04-15T07:05:55;97608.28;;;12.03;63.38
74975;BME280;68459;50.836;19.138;2023-04-15T07:08:58;97607.16;;;11.99;62.43
74975;BME280;68459;50.836;19.138;2023-04-15T07:12:03;97619.78;;;11.89;63.04
74975;BME280;68459;50.836;19.138;2023-04-15T07:15:07;97619.84;;;11.99;62.80
74975;BME280;68459;50.836;19.138;2023-04-15T07:18:11;97628.31;;;12.07;62.44
74975;BME280;68459;50.836;19.138;2023-04-15T07:21:16;97626.75;;;12.17;61.69
74975;BME280;68459;50.836;19.138;2023-04-15T07:24:20;97627.88;;;12.21;61.92
74975;BME280;68459;50.836;19.138;2023-04-15T07:27:27;97625.94;;;12.16;61.10
74975;BME280;68459;50.836;19.138;2023-04-15T07:30:31;97633.16;;;12.05;61.64
74975;BME280;68459;50.836;19.138;2023-04-15T07:33:35;97623.16;;;12.06;61.75
74975;BME280;68459;50.836;19.138;2023-04-15T07:36:40;97619.50;;;12.22;61.14
74975;BME280;68459;50.836;19.138;2023-04-15T07:39:44;97625.34;;;12.46;61.41
74975;BME280;68459;50.836;19.138;2023-04-15T07:42:48;97615.91;;;12.54;60.24
74975;BME280;68459;50.836;19.138;2023-04-15T07:45:52;97623.81;;;12.60;61.04
74975;BME280;68459;50.836;19.138;2023-04-15T07:48:56;97616.84;;;12.74;60.42
74975;BME280;68459;50.836;19.138;2023-04-15T07:52:01;97629.06;;;12.82;60.10
74975;BME280;68459;50.836;19.138;2023-04-15T07:55:06;97636.69;;;12.95;59.66
74975;BME280;68459;50.836;19.138;2023-04-15T07:58:10;97633.19;;;12.95;59.25
74975;BME280;68459;50.836;19.138;2023-04-15T08:01:14;97633.81;;;13.12;59.30
74975;BME280;68459;50.836;19.138;2023-04-15T08:04:18;97631.72;;;13.24;59.43
74975;BME280;68459;50.836;19.138;2023-04-15T08:07:23;97620.94;;;13.44;58.67
74975;BME280;68459;50.836;19.138;2023-04-15T08:10:28;97623.66;;;13.60;58.30
74975;BME280;68459;50.836;19.138;2023-04-15T08:13:32;97628.03;;;13.71;57.71
74975;BME280;68459;50.836;19.138;2023-04-15T08:16:35;97632.09;;;13.88;57.92
74975;BME280;68459;50.836;19.138;2023-04-15T08:19:39;97624.25;;;14.02;57.53
74975;BME280;68459;50.836;19.138;2023-04-15T08:22:45;97634.03;;;14.03;57.20
74975;BME280;68459;50.836;19.138;2023-04-15T08:25:52;97626.44;;;14.15;56.93
74975;BME280;68459;50.836;19.138;2023-04-15T08:28:56;97623.72;;;14.20;57.12
74975;BME280;68459;50.836;19.138;2023-04-15T08:32:00;97630.22;;;14.14;56.64
74975;BME280;68459;50.836;19.138;2023-04-15T08:35:05;97632.91;;;13.99;56.96
74975;BME280;68459;50.836;19.138;2023-04-15T08:38:11;97633.47;;;14.01;56.82
74975;BME280;68459;50.836;19.138;2023-04-15T08:41:20;97636.19;;;14.26;55.93
74975;BME280;68459;50.836;19.138;2023-04-15T08:44:25;97629.41;;;14.44;55.98
74975;BME280;68459;50.836;19.138;2023-04-15T08:47:33;97621.78;;;14.51;55.54
74975;BME280;68459;50.836;19.138;2023-04-15T08:50:38;97623.19;;;14.44;55.56
74975;BME280;68459;50.836;19.138;2023-04-15T08:53:44;97637.81;;;14.38;54.82
74975;BME280;68459;50.836;19.138;2023-04-15T08:56:49;97630.78;;;14.42;54.81
74975;BME280;68459;50.836;19.138;2023-04-15T08:59:55;97634.03;;;14.44;54.96
74975;BME280;68459;50.836;19.138;2023-04-15T09:02:59;97635.38;;;14.56;54.74
74975;BME280;68459;50.836;19.138;2023-04-15T09:06:04;97637.78;;;14.73;54.49
74975;BME280;68459;50.836;19.138;2023-04-15T09:09:11;97637.69;;;14.98;54.16
74975;BME280;68459;50.836;19.138;2023-04-15T09:12:15;97638.13;;;15.26;53.21
74975;BME280;68459;50.836;19.138;2023-04-15T09:15:19;97648.31;;;15.54;53.45
74975;BME280;68459;50.836;19.138;2023-04-15T09:18:27;97644.69;;;15.74;52.14
74975;BME280;68459;50.836;19.138;2023-04-15T09:21:31;97641.66;;;15.81;51.91
74975;BME280;68459;50.836;19.138;2023-04-15T09:24:38;97634.72;;;15.98;51.33
74975;BME280;68459;50.836;19.138;2023-04-15T09:27:47;97644.47;;;16.10;50.66
74975;BME280;68459;50.836;19.138;2023-04-15T09:30:54;97642.84;;;16.09;50.10
74975;BME280;68459;50.836;19.138;2023-04-15T09:33:59;97640.03;;;16.19;50.48
74975;BME280;68459;50.836;19.138;2023-04-15T09:37:02;97638.28;;;16.33;50.35
74975;BME280;68459;50.836;19.138;2023-04-15T09:40:11;97638.06;;;16.53;49.85
74975;BME280;68459;50.836;19.138;2023-04-15T09:43:15;97641.28;;;16.60;49.08
74975;BME280;68459;50.836;19.138;2023-04-15T09:46:19;97643.41;;;16.68;49.69
74975;BME280;68459;50.836;19.138;2023-04-15T09:49:23;97634.22;;;16.88;48.91
74975;BME280;68459;50.836;19.138;2023-04-15T09:52:27;97633.56;;;16.96;48.75
74975;BME280;68459;50.836;19.138;2023-04-15T09:55:32;97638.28;;;16.91;47.96
74975;BME280;68459;50.836;19.138;2023-04-15T09:58:36;97632.47;;;16.73;48.24
74975;BME280;68459;50.836;19.138;2023-04-15T10:01:40;97636.47;;;16.81;47.98
74975;BME280;68459;50.836;19.138;2023-04-15T10:04:47;97634.44;;;16.92;47.99
74975;BME280;68459;50.836;19.138;2023-04-15T10:07:51;97639.31;;;16.95;47.54
74975;BME280;68459;50.836;19.138;2023-04-15T10:10:58;97634.94;;;16.70;47.35
74975;BME280;68459;50.836;19.138;2023-04-15T10:14:03;97646.38;;;16.72;46.93
74975;BME280;68459;50.836;19.138;2023-04-15T10:17:10;97634.69;;;16.95;46.70
74975;BME280;68459;50.836;19.138;2023-04-15T10:20:16;97637.34;;;17.00;45.79
74975;BME280;68459;50.836;19.138;2023-04-15T10:23:22;97648.78;;;17.02;45.16
74975;BME280;68459;50.836;19.138;2023-04-15T10:26:28;97642.22;;;17.03;45.64
74975;BME280;68459;50.836;19.138;2023-04-15T10:29:33;97638.72;;;17.22;45.77
74975;BME280;68459;50.836;19.138;2023-04-15T10:32:37;97642.22;;;17.46;45.19
74975;BME280;68459;50.836;19.138;2023-04-15T10:35:43;97637.16;;;17.58;44.99
74975;BME280;68459;50.836;19.138;2023-04-15T10:38:48;97640.06;;;17.67;45.40
74975;BME280;68459;50.836;19.138;2023-04-15T10:42:06;97642.50;;;17.68;44.33
74975;BME280;68459;50.836;19.138;2023-04-15T10:45:15;97642.31;;;17.60;45.23
74975;BME280;68459;50.836;19.138;2023-04-15T10:48:20;97638.34;;;17.52;45.52
74975;BME280;68459;50.836;19.138;2023-04-15T10:51:29;97636.84;;;17.41;44.67
74975;BME280;68459;50.836;19.138;2023-04-15T10:54:33;97639.28;;;17.42;45.26
74975;BME280;68459;50.836;19.138;2023-04-15T10:57:42;97640.03;;;17.48;44.38
74975;BME280;68459;50.836;19.138;2023-04-15T11:00:49;97633.91;;;17.37;44.73
74975;BME280;68459;50.836;19.138;2023-04-15T11:03:54;97641.69;;;17.25;44.81
74975;BME280;68459;50.836;19.138;2023-04-15T11:07:05;97644.97;;;17.22;42.76
74975;BME280;68459;50.836;19.138;2023-04-15T11:13:57;97638.63;;;17.08;44.92
74975;BME280;68459;50.836;19.138;2023-04-15T11:17:02;97636.19;;;17.06;45.00
74975;BME280;68459;50.836;19.138;2023-04-15T11:20:07;97644.63;;;17.05;44.85
74975;BME280;68459;50.836;19.138;2023-04-15T11:23:11;97641.19;;;16.99;45.18
74975;BME280;68459;50.836;19.138;2023-04-15T11:26:17;97651.31;;;16.94;44.98
74975;BME280;68459;50.836;19.138;2023-04-15T11:29:22;97643.50;;;16.87;44.16
74975;BME280;68459;50.836;19.138;2023-04-15T11:32:32;97654.31;;;16.68;45.07
74975;BME280;68459;50.836;19.138;2023-04-15T11:35:35;97650.19;;;16.71;45.59
74975;BME280;68459;50.836;19.138;2023-04-15T11:38:42;97651.84;;;16.67;45.00
74975;BME280;68459;50.836;19.138;2023-04-15T11:41:47;97660.06;;;16.62;45.22
74975;BME280;68459;50.836;19.138;2023-04-15T11:45:05;97648.97;;;16.53;45.19
74975;BME280;68459;50.836;19.138;2023-04-15T11:48:11;97656.38;;;16.48;45.31
74975;BME280;68459;50.836;19.138;2023-04-15T11:51:15;97654.91;;;16.26;45.51
74975;BME280;68459;50.836;19.138;2023-04-15T11:54:21;97662.47;;;16.00;45.99
74975;BME280;68459;50.836;19.138;2023-04-15T11:57:30;97665.34;;;15.80;46.25
74975;BME280;68459;50.836;19.138;2023-04-15T12:00:35;97671.69;;;15.60;46.59
74975;BME280;68459;50.836;19.138;2023-04-15T12:03:42;97671.72;;;15.55;46.36
74975;BME280;68459;50.836;19.138;2023-04-15T12:06:47;97669.81;;;15.51;46.73
74975;BME280;68459;50.836;19.138;2023-04-15T12:09:54;97678.50;;;15.58;46.33
74975;BME280;68459;50.836;19.138;2023-04-15T12:12:58;97676.31;;;15.60;46.42
74975;BME280;68459;50.836;19.138;2023-04-15T12:16:04;97678.13;;;15.75;46.47
74975;BME280;68459;50.836;19.138;2023-04-15T12:19:09;97688.09;;;15.89;46.70
74975;BME280;68459;50.836;19.138;2023-04-15T12:22:16;97686.19;;;15.95;46.49
74975;BME280;68459;50.836;19.138;2023-04-15T12:25:32;97686.75;;;15.92;46.05
74975;BME280;68459;50.836;19.138;2023-04-15T12:28:39;97692.81;;;15.79;46.95
74975;BME280;68459;50.836;19.138;2023-04-15T12:31:48;97692.59;;;15.65;46.29
74975;BME280;68459;50.836;19.138;2023-04-15T12:34:54;97687.47;;;15.53;47.13
74975;BME280;68459;50.836;19.138;2023-04-15T12:37:57;97689.97;;;15.40;46.82
74975;BME280;68459;50.836;19.138;2023-04-15T12:41:01;97692.97;;;15.33;47.25
74975;BME280;68459;50.836;19.138;2023-04-15T12:44:05;97684.31;;;15.31;47.31
74975;BME280;68459;50.836;19.138;2023-04-15T12:47:11;97683.72;;;15.44;47.47
74975;BME280;68459;50.836;19.138;2023-04-15T12:50:15;97684.16;;;15.66;47.31
74975;BME280;68459;50.836;19.138;2023-04-15T12:53:19;97687.25;;;16.67;46.74
74975;BME280;68459;50.836;19.138;2023-04-15T12:56:23;97685.34;;;17.44;45.46
74975;BME280;68459;50.836;19.138;2023-04-15T12:59:27;97694.03;;;17.89;44.91
74975;BME280;68459;50.836;19.138;2023-04-15T13:02:32;97690.94;;;18.33;44.47
74975;BME280;68459;50.836;19.138;2023-04-15T13:05:37;97696.81;;;19.18;43.98
74975;BME280;68459;50.836;19.138;2023-04-15T13:08:41;97698.78;;;20.67;42.77
74975;BME280;68459;50.836;19.138;2023-04-15T13:11:59;97698.66;;;23.12;39.94
74975;BME280;68459;50.836;19.138;2023-04-15T13:15:03;97700.47;;;23.75;38.50
74975;BME280;68459;50.836;19.138;2023-04-15T13:18:09;97703.88;;;24.84;37.14
74975;BME280;68459;50.836;19.138;2023-04-15T13:21:13;97711.59;;;25.24;36.91
74975;BME280;68459;50.836;19.138;2023-04-15T13:24:17;97699.56;;;25.89;35.32
74975;BME280;68459;50.836;19.138;2023-04-15T13:27:21;97710.97;;;25.64;35.54
74975;BME280;68459;50.836;19.138;2023-04-15T13:30:25;97717.28;;;25.64;35.89
74975;BME280;68459;50.836;19.138;2023-04-15T13:33:30;97721.03;;;25.60;36.14
74975;BME280;68459;50.836;19.138;2023-04-15T13:36:33;97716.34;;;25.72;35.83
74975;BME280;68459;50.836;19.138;2023-04-15T13:39:37;97718.66;;;25.01;36.17
74975;BME280;68459;50.836;19.138;2023-04-15T13:42:41;97719.19;;;23.90;37.38
74975;BME280;68459;50.836;19.138;2023-04-15T13:45:45;97720.69;;;22.68;38.93
74975;BME280;68459;50.836;19.138;2023-04-15T13:48:52;97721.00;;;21.50;40.59
74975;BME280;68459;50.836;19.138;2023-04-15T13:51:55;97717.03;;;20.72;41.18
74975;BME280;68459;50.836;19.138;2023-04-15T13:54:59;97717.56;;;20.02;41.84
74975;BME280;68459;50.836;19.138;2023-04-15T13:58:20;97729.59;;;19.05;43.07
74975;BME280;68459;50.836;19.138;2023-04-15T14:01:24;97725.84;;;18.17;44.36
74975;BME280;68459;50.836;19.138;2023-04-15T14:04:29;97734.88;;;17.51;44.91
74975;BME280;68459;50.836;19.138;2023-04-15T14:07:34;97742.56;;;16.91;46.06
74975;BME280;68459;50.836;19.138;2023-04-15T14:10:38;97738.56;;;16.50;46.53
74975;BME280;68459;50.836;19.138;2023-04-15T14:13:42;97741.59;;;16.04;46.68
74975;BME280;68459;50.836;19.138;2023-04-15T14:16:46;97749.03;;;15.88;47.31
74975;BME280;68459;50.836;19.138;2023-04-15T14:19:52;97741.09;;;17.99;46.51
74975;BME280;68459;50.836;19.138;2023-04-15T14:22:55;97744.00;;;22.54;40.83
74975;BME280;68459;50.836;19.138;2023-04-15T14:25:59;97754.34;;;24.23;36.43
74975;BME280;68459;50.836;19.138;2023-04-15T14:29:03;97755.81;;;22.63;37.87
74975;BME280;68459;50.836;19.138;2023-04-15T14:32:07;97761.34;;;21.41;39.86
74975;BME280;68459;50.836;19.138;2023-04-15T14:35:15;97765.09;;;20.55;40.47
74975;BME280;68459;50.836;19.138;2023-04-15T14:38:19;97770.19;;;19.44;42.10
74975;BME280;68459;50.836;19.138;2023-04-15T14:41:23;97774.00;;;18.64;42.58
74975;BME280;68459;50.836;19.138;2023-04-15T14:44:28;97769.47;;;17.98;43.56
74975;BME280;68459;50.836;19.138;2023-04-15T14:47:32;97770.16;;;17.90;43.58
74975;BME280;68459;50.836;19.138;2023-04-15T14:50:38;97773.31;;;17.50;43.88
74975;BME280;68459;50.836;19.138;2023-04-15T14:53:42;97774.16;;;16.92;44.10
74975;BME280;68459;50.836;19.138;2023-04-15T14:56:46;97775.59;;;16.51;44.80
74975;BME280;68459;50.836;19.138;2023-04-15T14:59:50;97779.34;;;16.16;45.39
74975;BME280;68459;50.836;19.138;2023-04-15T15:02:57;97774.91;;;15.76;46.21
74975;BME280;68459;50.836;19.138;2023-04-15T15:06:03;97775.59;;;15.27;46.69
74975;BME280;68459;50.836;19.138;2023-04-15T15:09:07;97784.34;;;14.88;47.48
74975;BME280;68459;50.836;19.138;2023-04-15T15:12:10;97790.88;;;14.57;47.30
74975;BME280;68459;50.836;19.138;2023-04-15T15:15:15;97798.94;;;14.32;47.47
74975;BME280;68459;50.836;19.138;2023-04-15T15:18:30;97800.56;;;14.22;47.99
74975;BME280;68459;50.836;19.138;2023-04-15T15:21:35;97792.69;;;14.21;48.37
74975;BME280;68459;50.836;19.138;2023-04-15T15:24:39;97794.06;;;14.23;47.85
74975;BME280;68459;50.836;19.138;2023-04-15T15:27:43;97799.47;;;14.28;47.80
74975;BME280;68459;50.836;19.138;2023-04-15T15:30:47;97802.75;;;14.36;47.67
74975;BME280;68459;50.836;19.138;2023-04-15T15:33:50;97805.50;;;14.56;47.71
74975;BME280;68459;50.836;19.138;2023-04-15T15:36:55;97805.94;;;16.73;46.53
74975;BME280;68459;50.836;19.138;2023-04-15T15:39:59;97802.47;;;17.54;43.56
74975;BME280;68459;50.836;19.138;2023-04-15T15:43:04;97805.44;;;18.80;43.50
74975;BME280;68459;50.836;19.138;2023-04-15T15:46:08;97813.13;;;21.73;40.01
74975;BME280;68459;50.836;19.138;2023-04-15T15:49:12;97813.81;;;24.24;36.35
74975;BME280;68459;50.836;19.138;2023-04-15T15:52:17;97815.50;;;25.98;33.96
74975;BME280;68459;50.836;19.138;2023-04-15T15:55:21;97812.53;;;25.58;33.67
74975;BME280;68459;50.836;19.138;2023-04-15T15:58:26;97811.69;;;23.53;35.72
74975;BME280;68459;50.836;19.138;2023-04-15T16:01:30;97813.19;;;22.47;38.00
74975;BME280;68459;50.836;19.138;2023-04-15T16:04:34;97814.38;;;23.70;36.79
74975;BME280;68459;50.836;19.138;2023-04-15T16:07:39;97816.03;;;23.63;35.88
74975;BME280;68459;50.836;19.138;2023-04-15T16:10:43;97811.56;;;22.55;37.52